sensor_id;sensor_type;location;lat;lon;timestamp;P1;durP1;ratioP1;P2;durP2;ratioP2
53833;SDS011;39735;51.432;5.482;2022-12-18T00:01:20;100.25;;;45.63;;
53833;SDS011;39735;51.432;5.482;2022-12-18T00:03:46;106.35;;;46.63;;
53833;SDS011;39735;51.432;5.482;2022-12-18T00:06:11;121.05;;;46.00;;
53833;SDS011;39735;51.432;5.482;2022-12-18T00:08:38;126.40;;;46.47;;
53833;SDS011;39735;51.432;5.482;2022-12-18T00:11:08;109.53;;;46.83;;
53833;SDS011;39735;51.432;5.482;2022-12-18T00:13:35;104.28;;;48.45;;
53833;SDS011;39735;51.432;5.482;2022-12-18T00:16:04;108.43;;;47.00;;
53833;SDS011;39735;51.432;5.482;2022-12-18T00:18:31;101.60;;;49.45;;
53833;SDS011;39735;51.432;5.482;2022-12-18T00:21:01;99.75;;;43.08;;
53833;SDS011;39735;51.432;5.482;2022-12-18T00:23:28;101.30;;;44.28;;
53833;SDS011;39735;51.432;5.482;2022-12-18T00:25:54;108.15;;;46.47;;
53833;SDS011;39735;51.432;5.482;2022-12-18T00:28:19;104.32;;;47.97;;
53833;SDS011;39735;51.432;5.482;2022-12-18T00:30:44;98.70;;;43.58;;
53833;SDS011;39735;51.432;5.482;2022-12-18T00:33:10;96.25;;;41.78;;
53833;SDS011;39735;51.432;5.482;2022-12-18T00:35:35;103.60;;;45.53;;
53833;SDS011;39735;51.432;5.482;2022-12-18T00:38:01;118.95;;;50.35;;
53833;SDS011;39735;51.432;5.482;2022-12-18T00:40:26;95.68;;;45.15;;
53833;SDS011;39735;51.432;5.482;2022-12-18T00:42:52;115.88;;;47.40;;
53833;SDS011;39735;51.432;5.482;2022-12-18T00:45:24;111.03;;;47.25;;
53833;SDS011;39735;51.432;5.482;2022-12-18T00:47:51;97.50;;;44.50;;
53833;SDS011;39735;51.432;5.482;2022-12-18T00:50:16;117.13;;;47.55;;
53833;SDS011;39735;51.432;5.482;2022-12-18T00:52:42;103.18;;;43.70;;
53833;SDS011;39735;51.432;5.482;2022-12-18T00:55:07;101.15;;;44.47;;
53833;SDS011;39735;51.432;5.482;2022-12-18T00:57:33;107.25;;;46.63;;
53833;SDS011;39735;51.432;5.482;2022-12-18T00:59:58;103.75;;;44.72;;
53833;SDS011;39735;51.432;5.482;2022-12-18T01:02:24;103.38;;;43.50;;
53833;SDS011;39735;51.432;5.482;2022-12-18T01:04:49;98.00;;;45.40;;
53833;SDS011;39735;51.432;5.482;2022-12-18T01:07:15;101.72;;;46.00;;
53833;SDS011;39735;51.432;5.482;2022-12-18T01:09:40;108.47;;;42.38;;
53833;SDS011;39735;51.432;5.482;2022-12-18T01:12:06;109.35;;;46.78;;
53833;SDS011;39735;51.432;5.482;2022-12-18T01:14:31;104.10;;;45.65;;
53833;SDS011;39735;51.432;5.482;2022-12-18T01:16:56;104.75;;;42.17;;
53833;SDS011;39735;51.432;5.482;2022-12-18T01:19:22;96.93;;;44.15;;
53833;SDS011;39735;51.432;5.482;2022-12-18T01:21:48;105.68;;;45.65;;
53833;SDS011;39735;51.432;5.482;2022-12-18T01:24:14;94.30;;;40.67;;
53833;SDS011;39735;51.432;5.482;2022-12-18T01:26:39;99.05;;;40.20;;
53833;SDS011;39735;51.432;5.482;2022-12-18T01:29:05;107.65;;;42.60;;
53833;SDS011;39735;51.432;5.482;2022-12-18T01:31:31;100.97;;;43.00;;
53833;SDS011;39735;51.432;5.482;2022-12-18T01:34:00;101.63;;;41.88;;
53833;SDS011;39735;51.432;5.482;2022-12-18T01:36:27;101.20;;;44.38;;
53833;SDS011;39735;51.432;5.482;2022-12-18T01:38:54;96.28;;;42.08;;
53833;SDS011;39735;51.432;5.482;2022-12-18T01:41:21;88.43;;;38.15;;
53833;SDS011;39735;51.432;5.482;2022-12-18T01:43:52;85.68;;;41.25;;
53833;SDS011;39735;51.432;5.482;2022-12-18T01:46:18;98.05;;;38.00;;
53833;SDS011;39735;51.432;5.482;2022-12-18T01:48:47;94.32;;;40.47;;
53833;SDS011;39735;51.432;5.482;2022-12-18T01:51:14;100.88;;;42.05;;
53833;SDS011;39735;51.432;5.482;2022-12-18T01:53:40;84.68;;;40.63;;
53833;SDS011;39735;51.432;5.482;2022-12-18T01:56:07;97.22;;;44.08;;
53833;SDS011;39735;51.432;5.482;2022-12-18T02:01:20;79.53;;;39.22;;
53833;SDS011;39735;51.432;5.482;2022-12-18T02:03:47;87.10;;;37.28;;
53833;SDS011;39735;51.432;5.482;2022-12-18T02:06:19;94.93;;;38.20;;
53833;SDS011;39735;51.432;5.482;2022-12-18T02:11:45;90.80;;;39.35;;
53833;SDS011;39735;51.432;5.482;2022-12-18T02:16:59;86.53;;;42.05;;
53833;SDS011;39735;51.432;5.482;2022-12-18T02:19:42;92.60;;;42.47;;
53833;SDS011;39735;51.432;5.482;2022-12-18T02:28:06;76.20;;;35.33;;
53833;SDS011;39735;51.432;5.482;2022-12-18T02:30:34;76.50;;;38.95;;
53833;SDS011;39735;51.432;5.482;2022-12-18T02:33:00;80.70;;;36.65;;
53833;SDS011;39735;51.432;5.482;2022-12-18T02:35:27;99.13;;;39.50;;
53833;SDS011;39735;51.432;5.482;2022-12-18T02:37:54;91.85;;;37.42;;
53833;SDS011;39735;51.432;5.482;2022-12-18T02:40:20;75.43;;;35.67;;
53833;SDS011;39735;51.432;5.482;2022-12-18T02:42:47;82.03;;;34.55;;
53833;SDS011;39735;51.432;5.482;2022-12-18T02:45:12;81.28;;;37.70;;
53833;SDS011;39735;51.432;5.482;2022-12-18T02:47:39;77.30;;;36.20;;
53833;SDS011;39735;51.432;5.482;2022-12-18T03:00:58;75.53;;;32.95;;
53833;SDS011;39735;51.432;5.482;2022-12-18T03:03:29;70.45;;;34.30;;
53833;SDS011;39735;51.432;5.482;2022-12-18T03:08:37;74.50;;;32.58;;
53833;SDS011;39735;51.432;5.482;2022-12-18T03:11:08;84.20;;;34.13;;
53833;SDS011;39735;51.432;5.482;2022-12-18T03:13:37;87.60;;;33.10;;
53833;SDS011;39735;51.432;5.482;2022-12-18T03:16:05;63.88;;;32.03;;
53833;SDS011;39735;51.432;5.482;2022-12-18T03:21:05;69.05;;;32.28;;
53833;SDS011;39735;51.432;5.482;2022-12-18T03:23:49;64.40;;;29.83;;
53833;SDS011;39735;51.432;5.482;2022-12-18T03:26:18;76.03;;;33.70;;
53833;SDS011;39735;51.432;5.482;2022-12-18T03:28:52;71.70;;;32.20;;
53833;SDS011;39735;51.432;5.482;2022-12-18T03:31:20;66.35;;;30.05;;
53833;SDS011;39735;51.432;5.482;2022-12-18T03:33:51;64.20;;;31.05;;
53833;SDS011;39735;51.432;5.482;2022-12-18T03:36:18;67.80;;;31.80;;
53833;SDS011;39735;51.432;5.482;2022-12-18T03:38:44;77.93;;;29.40;;
53833;SDS011;39735;51.432;5.482;2022-12-18T03:43:57;72.22;;;30.58;;
53833;SDS011;39735;51.432;5.482;2022-12-18T03:49:21;58.60;;;28.70;;
53833;SDS011;39735;51.432;5.482;2022-12-18T03:52:20;67.25;;;28.75;;
53833;SDS011;39735;51.432;5.482;2022-12-18T03:54:49;86.55;;;29.98;;
53833;SDS011;39735;51.432;5.482;2022-12-18T03:57:18;75.05;;;29.42;;
53833;SDS011;39735;51.432;5.482;2022-12-18T03:59:45;65.32;;;28.00;;
53833;SDS011;39735;51.432;5.482;2022-12-18T04:02:13;59.72;;;28.45;;
53833;SDS011;39735;51.432;5.482;2022-12-18T04:04:40;70.30;;;34.33;;
53833;SDS011;39735;51.432;5.482;2022-12-18T04:07:07;53.67;;;27.05;;
53833;SDS011;39735;51.432;5.482;2022-12-18T04:09:32;63.80;;;29.42;;
53833;SDS011;39735;51.432;5.482;2022-12-18T04:11:59;62.55;;;28.48;;
53833;SDS011;39735;51.432;5.482;2022-12-18T04:14:24;52.15;;;26.77;;
53833;SDS011;39735;51.432;5.482;2022-12-18T04:16:49;61.05;;;26.98;;
53833;SDS011;39735;51.432;5.482;2022-12-18T04:19:15;69.60;;;28.00;;
53833;SDS011;39735;51.432;5.482;2022-12-18T04:21:40;64.45;;;29.63;;
53833;SDS011;39735;51.432;5.482;2022-12-18T04:24:05;55.40;;;26.98;;
53833;SDS011;39735;51.432;5.482;2022-12-18T04:26:31;56.10;;;26.88;;
53833;SDS011;39735;51.432;5.482;2022-12-18T04:28:56;72.18;;;29.25;;
53833;SDS011;39735;51.432;5.482;2022-12-18T04:31:22;67.57;;;28.13;;
53833;SDS011;39735;51.432;5.482;2022-12-18T04:33:47;64.97;;;29.02;;
53833;SDS011;39735;51.432;5.482;2022-12-18T04:36:12;63.88;;;25.65;;
53833;SDS011;39735;51.432;5.482;2022-12-18T04:38:38;67.47;;;29.80;;
53833;SDS011;39735;51.432;5.482;2022-12-18T04:41:03;57.88;;;25.55;;
53833;SDS011;39735;51.432;5.482;2022-12-18T04:43:29;64.68;;;25.20;;
53833;SDS011;39735;51.432;5.482;2022-12-18T04:46:00;62.05;;;26.20;;
53833;SDS011;39735;51.432;5.482;2022-12-18T04:48:29;48.55;;;26.20;;
53833;SDS011;39735;51.432;5.482;2022-12-18T04:50:54;50.03;;;26.42;;
53833;SDS011;39735;51.432;5.482;2022-12-18T04:53:20;52.38;;;27.70;;
53833;SDS011;39735;51.432;5.482;2022-12-18T04:55:45;67.03;;;25.10;;
53833;SDS011;39735;51.432;5.482;2022-12-18T04:58:10;57.65;;;25.08;;
53833;SDS011;39735;51.432;5.482;2022-12-18T05:00:36;53.95;;;24.70;;
53833;SDS011;39735;51.432;5.482;2022-12-18T05:03:01;61.08;;;25.13;;
53833;SDS011;39735;51.432;5.482;2022-12-18T05:05:27;64.00;;;28.67;;
53833;SDS011;39735;51.432;5.482;2022-12-18T05:07:52;61.20;;;26.35;;
53833;SDS011;39735;51.432;5.482;2022-12-18T05:10:18;62.38;;;28.85;;
53833;SDS011;39735;51.432;5.482;2022-12-18T05:12:43;53.97;;;24.77;;
53833;SDS011;39735;51.432;5.482;2022-12-18T05:15:28;60.42;;;22.73;;
53833;SDS011;39735;51.432;5.482;2022-12-18T05:17:54;52.00;;;26.23;;
53833;SDS011;39735;51.432;5.482;2022-12-18T05:20:20;67.55;;;26.75;;
53833;SDS011;39735;51.432;5.482;2022-12-18T05:22:45;48.90;;;23.60;;
53833;SDS011;39735;51.432;5.482;2022-12-18T05:25:10;56.10;;;24.65;;
53833;SDS011;39735;51.432;5.482;2022-12-18T05:27:36;41.13;;;23.55;;
53833;SDS011;39735;51.432;5.482;2022-12-18T05:30:01;62.35;;;27.95;;
53833;SDS011;39735;51.432;5.482;2022-12-18T05:32:27;48.88;;;25.45;;
53833;SDS011;39735;51.432;5.482;2022-12-18T05:34:52;55.13;;;23.05;;
53833;SDS011;39735;51.432;5.482;2022-12-18T05:37:18;57.95;;;26.65;;
53833;SDS011;39735;51.432;5.482;2022-12-18T05:39:43;51.15;;;25.08;;
53833;SDS011;39735;51.432;5.482;2022-12-18T05:42:09;63.92;;;25.17;;
53833;SDS011;39735;51.432;5.482;2022-12-18T05:44:34;51.67;;;22.20;;
53833;SDS011;39735;51.432;5.482;2022-12-18T05:47:00;54.00;;;25.48;;
53833;SDS011;39735;51.432;5.482;2022-12-18T05:49:25;58.10;;;24.40;;
53833;SDS011;39735;51.432;5.482;2022-12-18T05:51:51;59.30;;;24.95;;
53833;SDS011;39735;51.432;5.482;2022-12-18T05:54:16;55.50;;;25.50;;
53833;SDS011;39735;51.432;5.482;2022-12-18T05:56:42;56.50;;;26.67;;
53833;SDS011;39735;51.432;5.482;2022-12-18T05:59:07;57.50;;;26.75;;
53833;SDS011;39735;51.432;5.482;2022-12-18T06:01:32;60.85;;;25.40;;
53833;SDS011;39735;51.432;5.482;2022-12-18T06:03:58;52.60;;;23.50;;
53833;SDS011;39735;51.432;5.482;2022-12-18T06:06:24;54.63;;;25.83;;
53833;SDS011;39735;51.432;5.482;2022-12-18T06:08:51;61.60;;;24.10;;
53833;SDS011;39735;51.432;5.482;2022-12-18T06:11:18;50.65;;;24.80;;
53833;SDS011;39735;51.432;5.482;2022-12-18T06:13:45;50.10;;;25.00;;
53833;SDS011;39735;51.432;5.482;2022-12-18T06:16:11;53.70;;;24.95;;
53833;SDS011;39735;51.432;5.482;2022-12-18T06:18:36;55.47;;;27.33;;
53833;SDS011;39735;51.432;5.482;2022-12-18T06:21:02;64.60;;;23.65;;
53833;SDS011;39735;51.432;5.482;2022-12-18T06:23:27;61.40;;;24.30;;
53833;SDS011;39735;51.432;5.482;2022-12-18T06:25:53;55.88;;;23.48;;
53833;SDS011;39735;51.432;5.482;2022-12-18T06:28:18;45.92;;;22.35;;
53833;SDS011;39735;51.432;5.482;2022-12-18T06:30:44;53.33;;;24.60;;
53833;SDS011;39735;51.432;5.482;2022-12-18T06:33:10;42.00;;;23.23;;
53833;SDS011;39735;51.432;5.482;2022-12-18T06:35:36;52.17;;;26.48;;
53833;SDS011;39735;51.432;5.482;2022-12-18T06:38:02;48.30;;;22.73;;
53833;SDS011;39735;51.432;5.482;2022-12-18T06:40:27;70.20;;;26.50;;
53833;SDS011;39735;51.432;5.482;2022-12-18T06:42:52;77.15;;;23.33;;
53833;SDS011;39735;51.432;5.482;2022-12-18T06:45:18;45.65;;;22.55;;
53833;SDS011;39735;51.432;5.482;2022-12-18T06:47:43;73.15;;;26.25;;
53833;SDS011;39735;51.432;5.482;2022-12-18T06:50:09;51.97;;;23.63;;
53833;SDS011;39735;51.432;5.482;2022-12-18T06:52:34;52.72;;;22.20;;
53833;SDS011;39735;51.432;5.482;2022-12-18T06:54:59;52.67;;;24.80;;
53833;SDS011;39735;51.432;5.482;2022-12-18T06:57:25;53.65;;;23.60;;
53833;SDS011;39735;51.432;5.482;2022-12-18T06:59:50;46.33;;;24.63;;
53833;SDS011;39735;51.432;5.482;2022-12-18T07:02:16;53.20;;;24.17;;
53833;SDS011;39735;51.432;5.482;2022-12-18T07:04:41;48.13;;;23.33;;
53833;SDS011;39735;51.432;5.482;2022-12-18T07:07:06;47.95;;;24.83;;
53833;SDS011;39735;51.432;5.482;2022-12-18T07:09:32;53.83;;;26.25;;
53833;SDS011;39735;51.432;5.482;2022-12-18T07:11:57;57.53;;;23.90;;
53833;SDS011;39735;51.432;5.482;2022-12-18T07:14:22;55.20;;;26.48;;
53833;SDS011;39735;51.432;5.482;2022-12-18T07:16:48;68.65;;;26.65;;
53833;SDS011;39735;51.432;5.482;2022-12-18T07:19:13;52.97;;;25.35;;
53833;SDS011;39735;51.432;5.482;2022-12-18T07:21:39;52.70;;;24.88;;
53833;SDS011;39735;51.432;5.482;2022-12-18T07:24:04;68.47;;;26.45;;
53833;SDS011;39735;51.432;5.482;2022-12-18T07:26:30;52.85;;;26.58;;
53833;SDS011;39735;51.432;5.482;2022-12-18T07:28:55;51.63;;;25.60;;
53833;SDS011;39735;51.432;5.482;2022-12-18T07:31:22;50.97;;;25.50;;
53833;SDS011;39735;51.432;5.482;2022-12-18T07:33:49;54.97;;;24.95;;
53833;SDS011;39735;51.432;5.482;2022-12-18T07:36:14;57.13;;;26.38;;
53833;SDS011;39735;51.432;5.482;2022-12-18T07:38:40;55.17;;;27.08;;
53833;SDS011;39735;51.432;5.482;2022-12-18T07:41:07;67.88;;;29.35;;
53833;SDS011;39735;51.432;5.482;2022-12-18T07:43:34;48.95;;;24.77;;
53833;SDS011;39735;51.432;5.482;2022-12-18T07:46:00;56.22;;;27.40;;
53833;SDS011;39735;51.432;5.482;2022-12-18T07:48:27;58.20;;;28.08;;
53833;SDS011;39735;51.432;5.482;2022-12-18T07:50:53;70.05;;;29.38;;
53833;SDS011;39735;51.432;5.482;2022-12-18T07:53:18;53.72;;;26.45;;
53833;SDS011;39735;51.432;5.482;2022-12-18T07:55:43;50.80;;;26.13;;
53833;SDS011;39735;51.432;5.482;2022-12-18T07:58:09;59.45;;;25.55;;
53833;SDS011;39735;51.432;5.482;2022-12-18T08:00:35;50.35;;;24.75;;
53833;SDS011;39735;51.432;5.482;2022-12-18T08:03:00;58.45;;;25.83;;
53833;SDS011;39735;51.432;5.482;2022-12-18T08:05:26;56.90;;;27.45;;
53833;SDS011;39735;51.432;5.482;2022-12-18T08:07:52;51.55;;;27.70;;
53833;SDS011;39735;51.432;5.482;2022-12-18T08:10:18;50.33;;;24.15;;
53833;SDS011;39735;51.432;5.482;2022-12-18T08:12:43;55.40;;;26.02;;
53833;SDS011;39735;51.432;5.482;2022-12-18T08:15:09;57.95;;;28.17;;
53833;SDS011;39735;51.432;5.482;2022-12-18T08:17:34;50.65;;;25.02;;
53833;SDS011;39735;51.432;5.482;2022-12-18T08:20:00;53.15;;;27.60;;
53833;SDS011;39735;51.432;5.482;2022-12-18T08:22:25;60.55;;;29.42;;
53833;SDS011;39735;51.432;5.482;2022-12-18T08:24:50;53.55;;;27.63;;
53833;SDS011;39735;51.432;5.482;2022-12-18T08:27:16;79.72;;;29.73;;
53833;SDS011;39735;51.432;5.482;2022-12-18T08:29:41;50.53;;;25.35;;
53833;SDS011;39735;51.432;5.482;2022-12-18T08:32:07;65.10;;;26.05;;
53833;SDS011;39735;51.432;5.482;2022-12-18T08:34:32;68.22;;;26.90;;
53833;SDS011;39735;51.432;5.482;2022-12-18T08:36:57;61.15;;;29.58;;
53833;SDS011;39735;51.432;5.482;2022-12-18T08:39:23;65.95;;;27.00;;
53833;SDS011;39735;51.432;5.482;2022-12-18T08:41:48;54.55;;;27.70;;
53833;SDS011;39735;51.432;5.482;2022-12-18T08:44:33;54.88;;;27.23;;
53833;SDS011;39735;51.432;5.482;2022-12-18T08:47:05;54.22;;;24.98;;
53833;SDS011;39735;51.432;5.482;2022-12-18T08:49:31;70.53;;;28.63;;
53833;SDS011;39735;51.432;5.482;2022-12-18T08:51:57;56.08;;;27.33;;
53833;SDS011;39735;51.432;5.482;2022-12-18T08:54:23;70.88;;;28.15;;
53833;SDS011;39735;51.432;5.482;2022-12-18T08:56:49;69.40;;;28.55;;
53833;SDS011;39735;51.432;5.482;2022-12-18T08:59:15;66.18;;;30.55;;
53833;SDS011;39735;51.432;5.482;2022-12-18T09:01:41;74.15;;;30.52;;
53833;SDS011;39735;51.432;5.482;2022-12-18T09:04:07;69.45;;;32.42;;
53833;SDS011;39735;51.432;5.482;2022-12-18T09:06:33;63.97;;;30.75;;
53833;SDS011;39735;51.432;5.482;2022-12-18T09:08:58;63.47;;;30.70;;
53833;SDS011;39735;51.432;5.482;2022-12-18T09:11:25;60.05;;;28.10;;
53833;SDS011;39735;51.432;5.482;2022-12-18T09:13:51;64.78;;;32.13;;
53833;SDS011;39735;51.432;5.482;2022-12-18T09:16:17;62.85;;;33.20;;
53833;SDS011;39735;51.432;5.482;2022-12-18T09:18:43;60.50;;;28.55;;
53833;SDS011;39735;51.432;5.482;2022-12-18T09:21:18;59.75;;;30.02;;
53833;SDS011;39735;51.432;5.482;2022-12-18T09:23:49;70.60;;;29.92;;
53833;SDS011;39735;51.432;5.482;2022-12-18T09:26:15;48.55;;;28.08;;
53833;SDS011;39735;51.432;5.482;2022-12-18T09:28:40;59.38;;;30.33;;
53833;SDS011;39735;51.432;5.482;2022-12-18T09:31:06;61.00;;;30.45;;
53833;SDS011;39735;51.432;5.482;2022-12-18T09:33:33;69.85;;;29.10;;
53833;SDS011;39735;51.432;5.482;2022-12-18T09:36:06;59.22;;;28.70;;
53833;SDS011;39735;51.432;5.482;2022-12-18T09:38:33;71.40;;;30.92;;
53833;SDS011;39735;51.432;5.482;2022-12-18T09:43:52;64.53;;;30.95;;
53833;SDS011;39735;51.432;5.482;2022-12-18T09:46:23;62.58;;;31.67;;
53833;SDS011;39735;51.432;5.482;2022-12-18T09:48:52;54.22;;;30.13;;
53833;SDS011;39735;51.432;5.482;2022-12-18T09:51:33;66.82;;;31.23;;
53833;SDS011;39735;51.432;5.482;2022-12-18T09:54:03;61.30;;;31.48;;
53833;SDS011;39735;51.432;5.482;2022-12-18T09:56:32;71.75;;;29.75;;
53833;SDS011;39735;51.432;5.482;2022-12-18T09:59:01;62.42;;;28.65;;
53833;SDS011;39735;51.432;5.482;2022-12-18T10:01:28;50.08;;;27.67;;
53833;SDS011;39735;51.432;5.482;2022-12-18T10:03:54;53.25;;;26.90;;
53833;SDS011;39735;51.432;5.482;2022-12-18T10:06:21;72.13;;;35.22;;
53833;SDS011;39735;51.432;5.482;2022-12-18T10:11:43;58.22;;;28.13;;
53833;SDS011;39735;51.432;5.482;2022-12-18T10:14:34;60.30;;;30.90;;
53833;SDS011;39735;51.432;5.482;2022-12-18T10:17:13;61.75;;;30.65;;
53833;SDS011;39735;51.432;5.482;2022-12-18T10:22:22;58.00;;;30.70;;
53833;SDS011;39735;51.432;5.482;2022-12-18T10:25:01;70.25;;;32.92;;
53833;SDS011;39735;51.432;5.482;2022-12-18T10:27:45;65.15;;;33.47;;
53833;SDS011;39735;51.432;5.482;2022-12-18T10:30:18;84.65;;;37.00;;
53833;SDS011;39735;51.432;5.482;2022-12-18T10:32:45;73.43;;;36.45;;
53833;SDS011;39735;51.432;5.482;2022-12-18T10:35:21;68.80;;;37.35;;
53833;SDS011;39735;51.432;5.482;2022-12-18T10:40:52;72.43;;;36.20;;
53833;SDS011;39735;51.432;5.482;2022-12-18T10:43:38;70.50;;;35.38;;
53833;SDS011;39735;51.432;5.482;2022-12-18T10:48:34;91.38;;;38.90;;
53833;SDS011;39735;51.432;5.482;2022-12-18T10:51:03;69.18;;;37.28;;
53833;SDS011;39735;51.432;5.482;2022-12-18T10:53:29;67.45;;;32.58;;
53833;SDS011;39735;51.432;5.482;2022-12-18T10:55:57;65.45;;;34.33;;
53833;SDS011;39735;51.432;5.482;2022-12-18T10:58:32;76.55;;;34.67;;
53833;SDS011;39735;51.432;5.482;2022-12-18T11:01:15;60.25;;;28.92;;
53833;SDS011;39735;51.432;5.482;2022-12-18T11:06:20;59.95;;;29.45;;
53833;SDS011;39735;51.432;5.482;2022-12-18T11:08:59;56.45;;;28.67;;
53833;SDS011;39735;51.432;5.482;2022-12-18T11:11:26;60.38;;;31.27;;
53833;SDS011;39735;51.432;5.482;2022-12-18T11:14:36;61.45;;;32.90;;
53833;SDS011;39735;51.432;5.482;2022-12-18T11:16:43;53.90;;;29.20;;
53833;SDS011;39735;51.432;5.482;2022-12-18T11:19:17;67.18;;;33.10;;
53833;SDS011;39735;51.432;5.482;2022-12-18T11:21:46;55.42;;;30.90;;
53833;SDS011;39735;51.432;5.482;2022-12-18T11:24:23;66.85;;;32.22;;
53833;SDS011;39735;51.432;5.482;2022-12-18T11:26:53;50.95;;;28.35;;
53833;SDS011;39735;51.432;5.482;2022-12-18T11:29:22;45.53;;;27.05;;
53833;SDS011;39735;51.432;5.482;2022-12-18T11:31:49;56.97;;;29.95;;
53833;SDS011;39735;51.432;5.482;2022-12-18T11:34:30;58.25;;;31.58;;
53833;SDS011;39735;51.432;5.482;2022-12-18T11:36:57;50.95;;;27.92;;
53833;SDS011;39735;51.432;5.482;2022-12-18T11:39:30;68.40;;;30.10;;
53833;SDS011;39735;51.432;5.482;2022-12-18T11:42:01;57.80;;;27.70;;
53833;SDS011;39735;51.432;5.482;2022-12-18T11:44:50;58.40;;;27.83;;
53833;SDS011;39735;51.432;5.482;2022-12-18T11:50:20;57.78;;;26.15;;
53833;SDS011;39735;51.432;5.482;2022-12-18T11:52:49;69.38;;;28.98;;
53833;SDS011;39735;51.432;5.482;2022-12-18T12:00:35;48.92;;;26.13;;
53833;SDS011;39735;51.432;5.482;2022-12-18T12:03:38;52.83;;;28.23;;
53833;SDS011;39735;51.432;5.482;2022-12-18T12:14:16;58.20;;;28.65;;
53833;SDS011;39735;51.432;5.482;2022-12-18T12:19:25;49.85;;;25.42;;
53833;SDS011;39735;51.432;5.482;2022-12-18T12:27:08;77.57;;;27.70;;
53833;SDS011;39735;51.432;5.482;2022-12-18T12:32:28;44.13;;;24.75;;
53833;SDS011;39735;51.432;5.482;2022-12-18T12:40:23;52.60;;;26.50;;
53833;SDS011;39735;51.432;5.482;2022-12-18T12:42:57;46.50;;;26.27;;
53833;SDS011;39735;51.432;5.482;2022-12-18T12:45:46;54.25;;;28.00;;
53833;SDS011;39735;51.432;5.482;2022-12-18T12:51:34;53.58;;;27.27;;
53833;SDS011;39735;51.432;5.482;2022-12-18T12:54:01;48.05;;;28.27;;
53833;SDS011;39735;51.432;5.482;2022-12-18T12:59:22;57.80;;;23.52;;
53833;SDS011;39735;51.432;5.482;2022-12-18T13:07:32;56.42;;;29.90;;
53833;SDS011;39735;51.432;5.482;2022-12-18T13:10:13;47.42;;;26.15;;
53833;SDS011;39735;51.432;5.482;2022-12-18T13:15:49;52.47;;;25.98;;
53833;SDS011;39735;51.432;5.482;2022-12-18T13:18:29;45.67;;;25.37;;
53833;SDS011;39735;51.432;5.482;2022-12-18T13:25:51;51.92;;;24.85;;
53833;SDS011;39735;51.432;5.482;2022-12-18T13:28:22;44.13;;;24.40;;
53833;SDS011;39735;51.432;5.482;2022-12-18T13:30:58;48.28;;;27.02;;
53833;SDS011;39735;51.432;5.482;2022-12-18T13:36:02;55.78;;;27.75;;
53833;SDS011;39735;51.432;5.482;2022-12-18T13:40:59;58.40;;;27.95;;
53833;SDS011;39735;51.432;5.482;2022-12-18T13:49:02;64.53;;;29.10;;
53833;SDS011;39735;51.432;5.482;2022-12-18T13:51:31;55.85;;;25.17;;
53833;SDS011;39735;51.432;5.482;2022-12-18T13:54:02;45.20;;;25.50;;
53833;SDS011;39735;51.432;5.482;2022-12-18T13:56:31;56.28;;;26.40;;
53833;SDS011;39735;51.432;5.482;2022-12-18T13:59:10;51.92;;;27.45;;
53833;SDS011;39735;51.432;5.482;2022-12-18T14:01:41;49.20;;;26.48;;
53833;SDS011;39735;51.432;5.482;2022-12-18T14:04:10;55.92;;;27.60;;
53833;SDS011;39735;51.432;5.482;2022-12-18T14:06:37;52.05;;;26.00;;
53833;SDS011;39735;51.432;5.482;2022-12-18T14:09:02;59.65;;;28.48;;
53833;SDS011;39735;51.432;5.482;2022-12-18T14:11:28;45.50;;;25.70;;
53833;SDS011;39735;51.432;5.482;2022-12-18T14:13:54;47.83;;;26.85;;
53833;SDS011;39735;51.432;5.482;2022-12-18T14:16:19;62.90;;;29.58;;
53833;SDS011;39735;51.432;5.482;2022-12-18T14:18:55;60.65;;;26.10;;
53833;SDS011;39735;51.432;5.482;2022-12-18T14:21:22;51.42;;;29.17;;
53833;SDS011;39735;51.432;5.482;2022-12-18T14:24:02;51.75;;;27.95;;
53833;SDS011;39735;51.432;5.482;2022-12-18T14:26:32;47.00;;;27.70;;
53833;SDS011;39735;51.432;5.482;2022-12-18T14:28:59;51.53;;;28.40;;
53833;SDS011;39735;51.432;5.482;2022-12-18T14:31:27;62.35;;;28.27;;
53833;SDS011;39735;51.432;5.482;2022-12-18T14:33:54;57.22;;;28.92;;
53833;SDS011;39735;51.432;5.482;2022-12-18T14:36:24;58.03;;;28.77;;
53833;SDS011;39735;51.432;5.482;2022-12-18T14:38:51;55.80;;;29.40;;
53833;SDS011;39735;51.432;5.482;2022-12-18T14:41:19;54.22;;;27.58;;
53833;SDS011;39735;51.432;5.482;2022-12-18T14:43:48;66.18;;;26.92;;
53833;SDS011;39735;51.432;5.482;2022-12-18T14:46:27;49.78;;;24.33;;
53833;SDS011;39735;51.432;5.482;2022-12-18T14:48:53;89.07;;;36.95;;
53833;SDS011;39735;51.432;5.482;2022-12-18T14:51:20;80.60;;;34.20;;
53833;SDS011;39735;51.432;5.482;2022-12-18T14:54:14;77.40;;;35.22;;
53833;SDS011;39735;51.432;5.482;2022-12-18T14:56:43;70.35;;;35.30;;
53833;SDS011;39735;51.432;5.482;2022-12-18T14:59:17;62.78;;;30.55;;
53833;SDS011;39735;51.432;5.482;2022-12-18T15:01:48;82.68;;;35.50;;
53833;SDS011;39735;51.432;5.482;2022-12-18T15:04:32;74.28;;;35.17;;
53833;SDS011;39735;51.432;5.482;2022-12-18T15:09:36;84.90;;;35.85;;
53833;SDS011;39735;51.432;5.482;2022-12-18T15:12:03;73.68;;;33.92;;
53833;SDS011;39735;51.432;5.482;2022-12-18T15:17:05;66.97;;;33.67;;
53833;SDS011;39735;51.432;5.482;2022-12-18T15:19:39;70.82;;;33.97;;
53833;SDS011;39735;51.432;5.482;2022-12-18T15:22:19;91.80;;;40.25;;
53833;SDS011;39735;51.432;5.482;2022-12-18T15:24:45;94.47;;;43.65;;
53833;SDS011;39735;51.432;5.482;2022-12-18T15:27:24;148.38;;;59.13;;
53833;SDS011;39735;51.432;5.482;2022-12-18T15:32:40;106.10;;;45.75;;
53833;SDS011;39735;51.432;5.482;2022-12-18T15:37:50;87.30;;;38.53;;
53833;SDS011;39735;51.432;5.482;2022-12-18T15:40:18;69.00;;;33.58;;
53833;SDS011;39735;51.432;5.482;2022-12-18T15:42:44;73.00;;;30.10;;
53833;SDS011;39735;51.432;5.482;2022-12-18T15:45:29;63.55;;;29.30;;
53833;SDS011;39735;51.432;5.482;2022-12-18T15:47:54;54.35;;;29.63;;
53833;SDS011;39735;51.432;5.482;2022-12-18T15:50:20;66.13;;;30.10;;
53833;SDS011;39735;51.432;5.482;2022-12-18T15:52:46;64.10;;;29.15;;
53833;SDS011;39735;51.432;5.482;2022-12-18T15:55:15;73.38;;;31.38;;
53833;SDS011;39735;51.432;5.482;2022-12-18T15:58:01;61.13;;;30.65;;
53833;SDS011;39735;51.432;5.482;2022-12-18T16:00:26;52.92;;;28.60;;
53833;SDS011;39735;51.432;5.482;2022-12-18T16:02:52;59.45;;;30.08;;
53833;SDS011;39735;51.432;5.482;2022-12-18T16:05:18;63.17;;;32.40;;
53833;SDS011;39735;51.432;5.482;2022-12-18T16:07:45;75.53;;;35.72;;
53833;SDS011;39735;51.432;5.482;2022-12-18T16:10:11;68.45;;;34.50;;
53833;SDS011;39735;51.432;5.482;2022-12-18T16:12:37;70.70;;;31.13;;
53833;SDS011;39735;51.432;5.482;2022-12-18T16:15:02;70.57;;;34.47;;
53833;SDS011;39735;51.432;5.482;2022-12-18T16:17:29;67.28;;;33.47;;
53833;SDS011;39735;51.432;5.482;2022-12-18T16:19:55;75.55;;;36.53;;
53833;SDS011;39735;51.432;5.482;2022-12-18T16:22:25;75.47;;;36.50;;
53833;SDS011;39735;51.432;5.482;2022-12-18T16:24:52;84.78;;;38.58;;
53833;SDS011;39735;51.432;5.482;2022-12-18T16:27:18;75.63;;;39.55;;
53833;SDS011;39735;51.432;5.482;2022-12-18T16:29:43;63.10;;;34.33;;
53833;SDS011;39735;51.432;5.482;2022-12-18T16:32:11;79.25;;;35.78;;
53833;SDS011;39735;51.432;5.482;2022-12-18T16:34:38;57.50;;;30.85;;